Terminal Aerodrome Forecast
Issued by NWS

Home | Current Version | Previous Version | Text Only | Print | Product List | Glossary On
Versions: 1 2 3 4 5 6 7 8 9 10 11 12 13 14 15 16 17 18 19 20
000
FTUS43 KGRR 281735
TAFLAN
TAF
KLAN 281735Z 2818/2918 22006KT P6SM SCT120 BKN200
     FM290400 VRB03KT P6SM SCT050 BKN120
     FM291600 13007KT P6SM VCSH SCT035 OVC060=

USA.gov is the U.S. government's official web portal to all federal, state and local government web resources and services.